sensor_id;sensor_type;location;lat;lon;timestamp;P1;durP1;ratioP1;P2;durP2;ratioP2
74957;SDS011;63741;42.624;26.276;2022-11-18T00:01:06;16.13;;;10.13;;
74957;SDS011;63741;42.624;26.276;2022-11-18T00:03:38;14.77;;;10.52;;
74957;SDS011;63741;42.624;26.276;2022-11-18T00:06:07;16.45;;;11.25;;
74957;SDS011;63741;42.624;26.276;2022-11-18T00:08:39;17.17;;;11.60;;
74957;SDS011;63741;42.624;26.276;2022-11-18T00:11:07;16.70;;;10.55;;
74957;SDS011;63741;42.624;26.276;2022-11-18T00:13:36;16.55;;;11.15;;
74957;SDS011;63741;42.624;26.276;2022-11-18T00:16:22;16.90;;;11.82;;
74957;SDS011;63741;42.624;26.276;2022-11-18T00:18:49;16.80;;;11.88;;
74957;SDS011;63741;42.624;26.276;2022-11-18T00:21:16;19.42;;;12.65;;
74957;SDS011;63741;42.624;26.276;2022-11-18T00:23:43;17.40;;;12.30;;
74957;SDS011;63741;42.624;26.276;2022-11-18T00:26:11;20.52;;;12.90;;
74957;SDS011;63741;42.624;26.276;2022-11-18T00:28:40;22.00;;;13.13;;
74957;SDS011;63741;42.624;26.276;2022-11-18T00:31:11;22.45;;;13.52;;
74957;SDS011;63741;42.624;26.276;2022-11-18T00:33:39;19.73;;;12.57;;
74957;SDS011;63741;42.624;26.276;2022-11-18T00:36:07;20.42;;;13.70;;
74957;SDS011;63741;42.624;26.276;2022-11-18T00:38:36;23.08;;;13.75;;
74957;SDS011;63741;42.624;26.276;2022-11-18T00:41:08;20.80;;;13.93;;
74957;SDS011;63741;42.624;26.276;2022-11-18T00:43:36;18.67;;;13.52;;
74957;SDS011;63741;42.624;26.276;2022-11-18T00:46:04;18.73;;;13.50;;
74957;SDS011;63741;42.624;26.276;2022-11-18T00:48:32;22.02;;;13.98;;
74957;SDS011;63741;42.624;26.276;2022-11-18T00:51:06;22.83;;;14.43;;
74957;SDS011;63741;42.624;26.276;2022-11-18T00:53:33;20.75;;;13.52;;
74957;SDS011;63741;42.624;26.276;2022-11-18T00:56:00;20.92;;;13.85;;
74957;SDS011;63741;42.624;26.276;2022-11-18T00:58:27;21.83;;;14.70;;
74957;SDS011;63741;42.624;26.276;2022-11-18T01:00:55;21.70;;;13.57;;
74957;SDS011;63741;42.624;26.276;2022-11-18T01:03:22;20.27;;;13.02;;
74957;SDS011;63741;42.624;26.276;2022-11-18T01:05:51;24.02;;;13.55;;
74957;SDS011;63741;42.624;26.276;2022-11-18T01:08:17;20.52;;;13.30;;
74957;SDS011;63741;42.624;26.276;2022-11-18T01:10:46;19.50;;;14.02;;
74957;SDS011;63741;42.624;26.276;2022-11-18T01:13:16;23.25;;;13.90;;
74957;SDS011;63741;42.624;26.276;2022-11-18T01:15:55;21.77;;;14.18;;
74957;SDS011;63741;42.624;26.276;2022-11-18T01:18:24;24.92;;;17.95;;
74957;SDS011;63741;42.624;26.276;2022-11-18T01:20:54;23.38;;;16.17;;
74957;SDS011;63741;42.624;26.276;2022-11-18T01:23:25;17.65;;;11.43;;
74957;SDS011;63741;42.624;26.276;2022-11-18T01:25:53;17.23;;;11.68;;
74957;SDS011;63741;42.624;26.276;2022-11-18T01:28:21;14.75;;;10.75;;
74957;SDS011;63741;42.624;26.276;2022-11-18T01:30:49;14.27;;;10.50;;
74957;SDS011;63741;42.624;26.276;2022-11-18T01:33:17;15.20;;;10.98;;
74957;SDS011;63741;42.624;26.276;2022-11-18T01:35:44;13.73;;;10.40;;
74957;SDS011;63741;42.624;26.276;2022-11-18T01:38:11;17.05;;;11.25;;
74957;SDS011;63741;42.624;26.276;2022-11-18T01:40:39;14.80;;;10.43;;
74957;SDS011;63741;42.624;26.276;2022-11-18T01:43:11;13.98;;;10.40;;
74957;SDS011;63741;42.624;26.276;2022-11-18T01:45:42;14.55;;;10.75;;
74957;SDS011;63741;42.624;26.276;2022-11-18T01:48:24;16.95;;;11.70;;
74957;SDS011;63741;42.624;26.276;2022-11-18T01:50:59;15.73;;;11.23;;
74957;SDS011;63741;42.624;26.276;2022-11-18T01:53:31;21.13;;;13.50;;
74957;SDS011;63741;42.624;26.276;2022-11-18T01:56:01;19.38;;;13.40;;
74957;SDS011;63741;42.624;26.276;2022-11-18T01:58:36;18.85;;;12.98;;
74957;SDS011;63741;42.624;26.276;2022-11-18T02:01:07;20.02;;;13.27;;
74957;SDS011;63741;42.624;26.276;2022-11-18T02:03:34;20.85;;;13.02;;
74957;SDS011;63741;42.624;26.276;2022-11-18T02:06:02;20.05;;;13.48;;
74957;SDS011;63741;42.624;26.276;2022-11-18T02:08:31;19.13;;;13.05;;
74957;SDS011;63741;42.624;26.276;2022-11-18T02:11:03;17.70;;;12.15;;
74957;SDS011;63741;42.624;26.276;2022-11-18T02:13:30;19.63;;;12.38;;
74957;SDS011;63741;42.624;26.276;2022-11-18T02:19:03;18.30;;;11.73;;
74957;SDS011;63741;42.624;26.276;2022-11-18T02:24:53;24.52;;;15.68;;
74957;SDS011;63741;42.624;26.276;2022-11-18T02:30:25;25.25;;;15.93;;
74957;SDS011;63741;42.624;26.276;2022-11-18T02:33:03;25.52;;;13.98;;
74957;SDS011;63741;42.624;26.276;2022-11-18T02:35:42;24.38;;;14.13;;
74957;SDS011;63741;42.624;26.276;2022-11-18T02:38:28;19.95;;;10.45;;
74957;SDS011;63741;42.624;26.276;2022-11-18T02:40:58;21.98;;;10.65;;
74957;SDS011;63741;42.624;26.276;2022-11-18T02:43:31;19.58;;;10.18;;
74957;SDS011;63741;42.624;26.276;2022-11-18T02:46:04;22.73;;;9.68;;
74957;SDS011;63741;42.624;26.276;2022-11-18T02:48:35;26.88;;;10.77;;
74957;SDS011;63741;42.624;26.276;2022-11-18T02:51:06;16.33;;;11.20;;
74957;SDS011;63741;42.624;26.276;2022-11-18T02:53:35;26.48;;;12.05;;
74957;SDS011;63741;42.624;26.276;2022-11-18T02:56:05;22.48;;;11.63;;
74957;SDS011;63741;42.624;26.276;2022-11-18T02:58:34;23.50;;;12.85;;
74957;SDS011;63741;42.624;26.276;2022-11-18T03:01:01;21.38;;;12.98;;
74957;SDS011;63741;42.624;26.276;2022-11-18T03:03:33;29.33;;;12.80;;
74957;SDS011;63741;42.624;26.276;2022-11-18T03:06:06;25.83;;;14.18;;
74957;SDS011;63741;42.624;26.276;2022-11-18T03:08:39;34.15;;;13.23;;
74957;SDS011;63741;42.624;26.276;2022-11-18T03:11:18;36.13;;;14.30;;
74957;SDS011;63741;42.624;26.276;2022-11-18T03:16:19;32.17;;;14.35;;
74957;SDS011;63741;42.624;26.276;2022-11-18T03:19:15;28.67;;;13.60;;
74957;SDS011;63741;42.624;26.276;2022-11-18T03:22:32;20.85;;;13.20;;
74957;SDS011;63741;42.624;26.276;2022-11-18T03:24:39;21.48;;;12.27;;
74957;SDS011;63741;42.624;26.276;2022-11-18T03:27:14;20.58;;;13.20;;
74957;SDS011;63741;42.624;26.276;2022-11-18T03:29:48;17.92;;;12.68;;
74957;SDS011;63741;42.624;26.276;2022-11-18T03:32:23;17.92;;;12.63;;
74957;SDS011;63741;42.624;26.276;2022-11-18T03:34:58;16.85;;;11.75;;
74957;SDS011;63741;42.624;26.276;2022-11-18T03:37:28;20.83;;;12.27;;
74957;SDS011;63741;42.624;26.276;2022-11-18T03:40:10;18.35;;;12.25;;
74957;SDS011;63741;42.624;26.276;2022-11-18T03:42:43;16.50;;;12.05;;
74957;SDS011;63741;42.624;26.276;2022-11-18T03:45:53;14.57;;;11.02;;
74957;SDS011;63741;42.624;26.276;2022-11-18T03:49:00;15.13;;;11.27;;
74957;SDS011;63741;42.624;26.276;2022-11-18T03:51:34;15.52;;;11.18;;
74957;SDS011;63741;42.624;26.276;2022-11-18T03:54:09;15.68;;;11.70;;
74957;SDS011;63741;42.624;26.276;2022-11-18T03:56:41;15.60;;;12.13;;
74957;SDS011;63741;42.624;26.276;2022-11-18T03:59:19;16.27;;;12.63;;
74957;SDS011;63741;42.624;26.276;2022-11-18T04:01:56;16.60;;;12.48;;
74957;SDS011;63741;42.624;26.276;2022-11-18T04:04:34;14.90;;;11.63;;
74957;SDS011;63741;42.624;26.276;2022-11-18T04:07:09;18.52;;;11.82;;
74957;SDS011;63741;42.624;26.276;2022-11-18T04:09:50;18.27;;;13.05;;
74957;SDS011;63741;42.624;26.276;2022-11-18T04:12:22;24.63;;;14.32;;
74957;SDS011;63741;42.624;26.276;2022-11-18T04:14:53;23.00;;;14.68;;
74957;SDS011;63741;42.624;26.276;2022-11-18T04:17:21;22.50;;;14.30;;
74957;SDS011;63741;42.624;26.276;2022-11-18T04:19:51;32.30;;;14.10;;
74957;SDS011;63741;42.624;26.276;2022-11-18T04:22:19;24.45;;;13.85;;
74957;SDS011;63741;42.624;26.276;2022-11-18T04:24:46;22.63;;;15.52;;
74957;SDS011;63741;42.624;26.276;2022-11-18T04:27:13;22.60;;;15.15;;
74957;SDS011;63741;42.624;26.276;2022-11-18T04:29:40;25.77;;;14.65;;
74957;SDS011;63741;42.624;26.276;2022-11-18T04:32:06;34.08;;;20.00;;
74957;SDS011;63741;42.624;26.276;2022-11-18T04:34:33;49.58;;;24.80;;
74957;SDS011;63741;42.624;26.276;2022-11-18T04:37:00;34.42;;;19.73;;
74957;SDS011;63741;42.624;26.276;2022-11-18T04:39:27;33.72;;;20.48;;
74957;SDS011;63741;42.624;26.276;2022-11-18T04:41:54;71.63;;;36.10;;
74957;SDS011;63741;42.624;26.276;2022-11-18T04:46:49;42.60;;;23.92;;
74957;SDS011;63741;42.624;26.276;2022-11-18T04:49:17;29.48;;;19.58;;
74957;SDS011;63741;42.624;26.276;2022-11-18T04:51:45;26.15;;;16.05;;
74957;SDS011;63741;42.624;26.276;2022-11-18T04:54:13;24.90;;;16.25;;
74957;SDS011;63741;42.624;26.276;2022-11-18T04:56:40;24.00;;;15.77;;
74957;SDS011;63741;42.624;26.276;2022-11-18T04:59:15;21.23;;;15.07;;
74957;SDS011;63741;42.624;26.276;2022-11-18T05:01:46;21.35;;;14.30;;
74957;SDS011;63741;42.624;26.276;2022-11-18T05:04:14;19.63;;;13.35;;
74957;SDS011;63741;42.624;26.276;2022-11-18T05:06:43;17.40;;;11.40;;
74957;SDS011;63741;42.624;26.276;2022-11-18T05:09:11;18.58;;;12.35;;
74957;SDS011;63741;42.624;26.276;2022-11-18T05:11:38;17.83;;;11.27;;
74957;SDS011;63741;42.624;26.276;2022-11-18T05:14:26;18.10;;;11.57;;
74957;SDS011;63741;42.624;26.276;2022-11-18T05:16:54;17.98;;;12.25;;
74957;SDS011;63741;42.624;26.276;2022-11-18T05:19:23;30.10;;;13.20;;
74957;SDS011;63741;42.624;26.276;2022-11-18T05:21:50;23.73;;;13.02;;
74957;SDS011;63741;42.624;26.276;2022-11-18T05:24:17;23.58;;;12.45;;
74957;SDS011;63741;42.624;26.276;2022-11-18T05:26:44;14.05;;;11.00;;
74957;SDS011;63741;42.624;26.276;2022-11-18T05:29:11;15.20;;;11.27;;
74957;SDS011;63741;42.624;26.276;2022-11-18T05:31:38;15.98;;;11.25;;
74957;SDS011;63741;42.624;26.276;2022-11-18T05:34:05;15.95;;;11.48;;
74957;SDS011;63741;42.624;26.276;2022-11-18T05:36:32;18.52;;;12.75;;
74957;SDS011;63741;42.624;26.276;2022-11-18T05:38:59;25.02;;;15.68;;
74957;SDS011;63741;42.624;26.276;2022-11-18T05:41:26;21.92;;;16.80;;
74957;SDS011;63741;42.624;26.276;2022-11-18T05:44:12;23.50;;;15.57;;
74957;SDS011;63741;42.624;26.276;2022-11-18T05:46:38;17.35;;;13.05;;
74957;SDS011;63741;42.624;26.276;2022-11-18T05:49:06;13.70;;;11.05;;
74957;SDS011;63741;42.624;26.276;2022-11-18T05:51:33;18.77;;;13.70;;
74957;SDS011;63741;42.624;26.276;2022-11-18T05:54:04;15.50;;;12.25;;
74957;SDS011;63741;42.624;26.276;2022-11-18T05:56:40;11.63;;;8.82;;
74957;SDS011;63741;42.624;26.276;2022-11-18T05:59:10;12.65;;;9.45;;
74957;SDS011;63741;42.624;26.276;2022-11-18T06:04:17;14.63;;;10.30;;
74957;SDS011;63741;42.624;26.276;2022-11-18T06:06:48;16.00;;;11.10;;
74957;SDS011;63741;42.624;26.276;2022-11-18T06:09:23;15.98;;;12.27;;
74957;SDS011;63741;42.624;26.276;2022-11-18T06:11:55;14.80;;;10.55;;
74957;SDS011;63741;42.624;26.276;2022-11-18T06:14:30;12.68;;;9.20;;
74957;SDS011;63741;42.624;26.276;2022-11-18T06:17:08;10.60;;;7.90;;
74957;SDS011;63741;42.624;26.276;2022-11-18T06:19:37;9.95;;;8.60;;
74957;SDS011;63741;42.624;26.276;2022-11-18T06:22:04;10.82;;;8.40;;
74957;SDS011;63741;42.624;26.276;2022-11-18T06:24:33;10.45;;;7.90;;
74957;SDS011;63741;42.624;26.276;2022-11-18T06:27:01;9.27;;;7.38;;
74957;SDS011;63741;42.624;26.276;2022-11-18T06:29:28;10.52;;;7.63;;
74957;SDS011;63741;42.624;26.276;2022-11-18T06:31:56;13.02;;;9.80;;
74957;SDS011;63741;42.624;26.276;2022-11-18T06:34:23;9.73;;;8.65;;
74957;SDS011;63741;42.624;26.276;2022-11-18T06:36:50;8.55;;;6.75;;
74957;SDS011;63741;42.624;26.276;2022-11-18T06:39:17;30.45;;;18.17;;
74957;SDS011;63741;42.624;26.276;2022-11-18T06:41:45;10.55;;;7.50;;
74957;SDS011;63741;42.624;26.276;2022-11-18T06:44:13;7.82;;;6.22;;
74957;SDS011;63741;42.624;26.276;2022-11-18T06:46:40;8.55;;;6.35;;
74957;SDS011;63741;42.624;26.276;2022-11-18T06:49:22;9.38;;;5.68;;
74957;SDS011;63741;42.624;26.276;2022-11-18T06:51:50;7.95;;;5.18;;
74957;SDS011;63741;42.624;26.276;2022-11-18T06:54:17;7.88;;;4.93;;
74957;SDS011;63741;42.624;26.276;2022-11-18T06:56:44;7.28;;;5.78;;
74957;SDS011;63741;42.624;26.276;2022-11-18T06:59:12;7.35;;;5.10;;
74957;SDS011;63741;42.624;26.276;2022-11-18T07:01:39;7.43;;;4.88;;
74957;SDS011;63741;42.624;26.276;2022-11-18T07:04:09;8.60;;;4.95;;
74957;SDS011;63741;42.624;26.276;2022-11-18T07:06:36;6.30;;;4.47;;
74957;SDS011;63741;42.624;26.276;2022-11-18T07:09:04;4.30;;;3.65;;
74957;SDS011;63741;42.624;26.276;2022-11-18T07:11:32;7.50;;;4.20;;
74957;SDS011;63741;42.624;26.276;2022-11-18T07:14:00;6.53;;;4.70;;
74957;SDS011;63741;42.624;26.276;2022-11-18T07:16:27;6.50;;;5.22;;
74957;SDS011;63741;42.624;26.276;2022-11-18T07:18:54;5.88;;;4.70;;
74957;SDS011;63741;42.624;26.276;2022-11-18T07:21:22;5.20;;;4.53;;
74957;SDS011;63741;42.624;26.276;2022-11-18T07:23:54;5.47;;;4.72;;
74957;SDS011;63741;42.624;26.276;2022-11-18T07:26:22;5.38;;;4.43;;
74957;SDS011;63741;42.624;26.276;2022-11-18T07:28:49;8.80;;;4.85;;
74957;SDS011;63741;42.624;26.276;2022-11-18T07:31:17;10.07;;;5.03;;
74957;SDS011;63741;42.624;26.276;2022-11-18T07:33:46;9.07;;;5.10;;
74957;SDS011;63741;42.624;26.276;2022-11-18T07:36:15;15.88;;;7.22;;
74957;SDS011;63741;42.624;26.276;2022-11-18T07:38:43;20.92;;;9.15;;
74957;SDS011;63741;42.624;26.276;2022-11-18T07:41:12;22.52;;;11.20;;
74957;SDS011;63741;42.624;26.276;2022-11-18T07:43:43;31.05;;;14.30;;
74957;SDS011;63741;42.624;26.276;2022-11-18T07:46:17;23.25;;;12.95;;
74957;SDS011;63741;42.624;26.276;2022-11-18T07:48:51;16.00;;;9.27;;
74957;SDS011;63741;42.624;26.276;2022-11-18T07:53:47;13.95;;;7.40;;
74957;SDS011;63741;42.624;26.276;2022-11-18T07:56:14;14.48;;;7.97;;
74957;SDS011;63741;42.624;26.276;2022-11-18T07:58:41;14.73;;;7.38;;
74957;SDS011;63741;42.624;26.276;2022-11-18T08:01:10;12.15;;;7.95;;
74957;SDS011;63741;42.624;26.276;2022-11-18T08:03:37;9.18;;;6.03;;
74957;SDS011;63741;42.624;26.276;2022-11-18T08:06:06;11.57;;;5.55;;
74957;SDS011;63741;42.624;26.276;2022-11-18T08:08:34;11.52;;;5.28;;
74957;SDS011;63741;42.624;26.276;2022-11-18T08:11:02;10.60;;;4.78;;
74957;SDS011;63741;42.624;26.276;2022-11-18T08:13:31;8.07;;;4.90;;
74957;SDS011;63741;42.624;26.276;2022-11-18T08:15:59;7.47;;;4.80;;
74957;SDS011;63741;42.624;26.276;2022-11-18T08:18:27;8.48;;;5.30;;
74957;SDS011;63741;42.624;26.276;2022-11-18T08:20:55;7.20;;;4.80;;
74957;SDS011;63741;42.624;26.276;2022-11-18T08:23:26;11.13;;;5.05;;
74957;SDS011;63741;42.624;26.276;2022-11-18T08:26:02;7.78;;;4.22;;
74957;SDS011;63741;42.624;26.276;2022-11-18T08:30:58;7.18;;;4.10;;
74957;SDS011;63741;42.624;26.276;2022-11-18T08:33:25;8.13;;;4.57;;
74957;SDS011;63741;42.624;26.276;2022-11-18T08:35:52;12.15;;;4.68;;
74957;SDS011;63741;42.624;26.276;2022-11-18T08:38:19;9.88;;;5.00;;
74957;SDS011;63741;42.624;26.276;2022-11-18T08:40:46;8.57;;;4.40;;
74957;SDS011;63741;42.624;26.276;2022-11-18T08:43:13;11.63;;;5.07;;
74957;SDS011;63741;42.624;26.276;2022-11-18T08:45:40;9.02;;;4.95;;
74957;SDS011;63741;42.624;26.276;2022-11-18T08:48:07;8.45;;;5.30;;
74957;SDS011;63741;42.624;26.276;2022-11-18T08:50:34;7.97;;;6.50;;
74957;SDS011;63741;42.624;26.276;2022-11-18T08:53:01;8.52;;;5.22;;
74957;SDS011;63741;42.624;26.276;2022-11-18T08:55:28;10.00;;;5.63;;
74957;SDS011;63741;42.624;26.276;2022-11-18T08:57:55;9.38;;;6.25;;
74957;SDS011;63741;42.624;26.276;2022-11-18T09:00:22;8.57;;;5.80;;
74957;SDS011;63741;42.624;26.276;2022-11-18T09:02:49;7.22;;;5.93;;
74957;SDS011;63741;42.624;26.276;2022-11-18T09:05:16;9.95;;;6.97;;
74957;SDS011;63741;42.624;26.276;2022-11-18T09:07:43;10.60;;;6.30;;
74957;SDS011;63741;42.624;26.276;2022-11-18T09:10:10;12.85;;;6.40;;
74957;SDS011;63741;42.624;26.276;2022-11-18T09:12:37;8.93;;;7.15;;
74957;SDS011;63741;42.624;26.276;2022-11-18T09:15:03;9.32;;;7.07;;
74957;SDS011;63741;42.624;26.276;2022-11-18T09:17:39;8.55;;;6.13;;
74957;SDS011;63741;42.624;26.276;2022-11-18T09:20:06;12.65;;;7.75;;
74957;SDS011;63741;42.624;26.276;2022-11-18T09:22:37;11.80;;;7.22;;
74957;SDS011;63741;42.624;26.276;2022-11-18T09:25:04;14.10;;;7.97;;
74957;SDS011;63741;42.624;26.276;2022-11-18T09:27:32;13.70;;;8.77;;
74957;SDS011;63741;42.624;26.276;2022-11-18T09:29:59;12.55;;;8.30;;
74957;SDS011;63741;42.624;26.276;2022-11-18T09:32:25;9.93;;;7.35;;
74957;SDS011;63741;42.624;26.276;2022-11-18T09:34:52;14.38;;;9.68;;
74957;SDS011;63741;42.624;26.276;2022-11-18T09:37:19;10.23;;;7.97;;
74957;SDS011;63741;42.624;26.276;2022-11-18T09:39:48;11.52;;;8.30;;
74957;SDS011;63741;42.624;26.276;2022-11-18T09:47:59;11.38;;;7.93;;
74957;SDS011;63741;42.624;26.276;2022-11-18T09:50:37;14.73;;;7.78;;
74957;SDS011;63741;42.624;26.276;2022-11-18T09:53:20;11.88;;;8.57;;
74957;SDS011;63741;42.624;26.276;2022-11-18T09:55:50;13.48;;;8.77;;
74957;SDS011;63741;42.624;26.276;2022-11-18T09:58:34;12.52;;;9.38;;
74957;SDS011;63741;42.624;26.276;2022-11-18T10:01:02;13.10;;;9.75;;
74957;SDS011;63741;42.624;26.276;2022-11-18T10:03:36;11.93;;;9.45;;
74957;SDS011;63741;42.624;26.276;2022-11-18T10:11:20;13.65;;;9.45;;
74957;SDS011;63741;42.624;26.276;2022-11-18T10:19:03;11.70;;;9.32;;
74957;SDS011;63741;42.624;26.276;2022-11-18T10:24:43;19.48;;;9.07;;
74957;SDS011;63741;42.624;26.276;2022-11-18T10:27:14;12.20;;;8.63;;
74957;SDS011;63741;42.624;26.276;2022-11-18T10:29:43;13.95;;;9.65;;
74957;SDS011;63741;42.624;26.276;2022-11-18T10:32:18;13.63;;;8.75;;
74957;SDS011;63741;42.624;26.276;2022-11-18T10:34:55;11.05;;;8.07;;
74957;SDS011;63741;42.624;26.276;2022-11-18T10:40:22;11.82;;;8.02;;
74957;SDS011;63741;42.624;26.276;2022-11-18T10:42:51;10.60;;;7.35;;
74957;SDS011;63741;42.624;26.276;2022-11-18T10:48:01;14.55;;;6.55;;
74957;SDS011;63741;42.624;26.276;2022-11-18T10:50:35;10.30;;;7.22;;
74957;SDS011;63741;42.624;26.276;2022-11-18T10:56:12;16.55;;;8.02;;
74957;SDS011;63741;42.624;26.276;2022-11-18T10:58:48;16.80;;;9.23;;
74957;SDS011;63741;42.624;26.276;2022-11-18T11:01:23;14.73;;;9.05;;
74957;SDS011;63741;42.624;26.276;2022-11-18T11:03:55;14.80;;;8.40;;
74957;SDS011;63741;42.624;26.276;2022-11-18T11:06:46;12.57;;;8.05;;
74957;SDS011;63741;42.624;26.276;2022-11-18T11:11:41;14.05;;;7.25;;
74957;SDS011;63741;42.624;26.276;2022-11-18T11:14:30;12.15;;;6.80;;
74957;SDS011;63741;42.624;26.276;2022-11-18T11:17:25;11.45;;;7.05;;
74957;SDS011;63741;42.624;26.276;2022-11-18T11:22:27;17.05;;;8.80;;
74957;SDS011;63741;42.624;26.276;2022-11-18T11:24:54;14.02;;;7.57;;
74957;SDS011;63741;42.624;26.276;2022-11-18T11:27:24;13.32;;;8.35;;
74957;SDS011;63741;42.624;26.276;2022-11-18T11:38:25;15.48;;;7.68;;
74957;SDS011;63741;42.624;26.276;2022-11-18T11:41:08;11.50;;;7.22;;
74957;SDS011;63741;42.624;26.276;2022-11-18T11:49:51;14.40;;;7.45;;
74957;SDS011;63741;42.624;26.276;2022-11-18T11:52:24;12.40;;;7.88;;
74957;SDS011;63741;42.624;26.276;2022-11-18T11:55:25;13.20;;;7.28;;
74957;SDS011;63741;42.624;26.276;2022-11-18T11:58:08;13.05;;;7.07;;
74957;SDS011;63741;42.624;26.276;2022-11-18T12:00:39;12.63;;;7.65;;
74957;SDS011;63741;42.624;26.276;2022-11-18T12:05:42;9.95;;;6.72;;
74957;SDS011;63741;42.624;26.276;2022-11-18T12:08:47;12.02;;;6.93;;
74957;SDS011;63741;42.624;26.276;2022-11-18T12:13:55;12.75;;;6.85;;
74957;SDS011;63741;42.624;26.276;2022-11-18T12:19:22;10.38;;;6.35;;
74957;SDS011;63741;42.624;26.276;2022-11-18T12:34:57;13.48;;;8.25;;
74957;SDS011;63741;42.624;26.276;2022-11-18T12:50:57;13.07;;;7.85;;
74957;SDS011;63741;42.624;26.276;2022-11-18T12:58:43;17.67;;;9.27;;
74957;SDS011;63741;42.624;26.276;2022-11-18T13:01:12;13.30;;;7.43;;
74957;SDS011;63741;42.624;26.276;2022-11-18T13:03:41;13.32;;;7.88;;
74957;SDS011;63741;42.624;26.276;2022-11-18T13:06:24;15.02;;;8.00;;
74957;SDS011;63741;42.624;26.276;2022-11-18T13:08:55;14.85;;;8.82;;
74957;SDS011;63741;42.624;26.276;2022-11-18T13:11:26;12.85;;;8.13;;
74957;SDS011;63741;42.624;26.276;2022-11-18T13:14:29;14.55;;;9.18;;
74957;SDS011;63741;42.624;26.276;2022-11-18T13:20:33;17.58;;;9.43;;
74957;SDS011;63741;42.624;26.276;2022-11-18T13:26:03;18.67;;;7.70;;
74957;SDS011;63741;42.624;26.276;2022-11-18T13:28:39;60.85;;;30.55;;
74957;SDS011;63741;42.624;26.276;2022-11-18T13:33:48;21.88;;;11.73;;
74957;SDS011;63741;42.624;26.276;2022-11-18T13:38:57;16.38;;;9.32;;
74957;SDS011;63741;42.624;26.276;2022-11-18T13:41:26;18.40;;;8.25;;
74957;SDS011;63741;42.624;26.276;2022-11-18T13:46:51;30.63;;;9.73;;
74957;SDS011;63741;42.624;26.276;2022-11-18T13:52:23;17.73;;;10.55;;
74957;SDS011;63741;42.624;26.276;2022-11-18T13:54:55;20.63;;;12.65;;
74957;SDS011;63741;42.624;26.276;2022-11-18T13:57:25;15.77;;;9.43;;
74957;SDS011;63741;42.624;26.276;2022-11-18T13:59:54;13.85;;;8.10;;
74957;SDS011;63741;42.624;26.276;2022-11-18T14:02:30;22.73;;;9.75;;
74957;SDS011;63741;42.624;26.276;2022-11-18T14:04:57;20.15;;;11.73;;
74957;SDS011;63741;42.624;26.276;2022-11-18T14:10:00;26.25;;;11.82;;
74957;SDS011;63741;42.624;26.276;2022-11-18T14:12:31;25.45;;;11.00;;
74957;SDS011;63741;42.624;26.276;2022-11-18T14:15:19;21.77;;;10.93;;
74957;SDS011;63741;42.624;26.276;2022-11-18T14:17:49;20.50;;;12.20;;
74957;SDS011;63741;42.624;26.276;2022-11-18T14:20:27;23.05;;;13.65;;
74957;SDS011;63741;42.624;26.276;2022-11-18T14:22:59;41.92;;;28.67;;
74957;SDS011;63741;42.624;26.276;2022-11-18T14:25:31;29.98;;;21.88;;
74957;SDS011;63741;42.624;26.276;2022-11-18T14:33:32;32.97;;;21.10;;
74957;SDS011;63741;42.624;26.276;2022-11-18T14:36:10;27.00;;;20.67;;
74957;SDS011;63741;42.624;26.276;2022-11-18T14:38:44;33.22;;;20.25;;
74957;SDS011;63741;42.624;26.276;2022-11-18T14:41:32;32.35;;;23.20;;
74957;SDS011;63741;42.624;26.276;2022-11-18T14:44:15;44.05;;;26.63;;
74957;SDS011;63741;42.624;26.276;2022-11-18T14:46:50;62.42;;;18.65;;
74957;SDS011;63741;42.624;26.276;2022-11-18T14:49:23;39.42;;;17.10;;
74957;SDS011;63741;42.624;26.276;2022-11-18T14:51:52;35.83;;;14.40;;
74957;SDS011;63741;42.624;26.276;2022-11-18T14:54:21;56.80;;;19.08;;
74957;SDS011;63741;42.624;26.276;2022-11-18T14:56:58;29.63;;;13.75;;
74957;SDS011;63741;42.624;26.276;2022-11-18T14:59:28;17.25;;;8.98;;
74957;SDS011;63741;42.624;26.276;2022-11-18T15:01:55;16.38;;;8.98;;
74957;SDS011;63741;42.624;26.276;2022-11-18T15:04:22;16.15;;;8.18;;
74957;SDS011;63741;42.624;26.276;2022-11-18T15:06:50;21.15;;;12.32;;
74957;SDS011;63741;42.624;26.276;2022-11-18T15:09:17;31.65;;;14.38;;
74957;SDS011;63741;42.624;26.276;2022-11-18T15:11:44;26.15;;;14.25;;
74957;SDS011;63741;42.624;26.276;2022-11-18T15:14:11;48.60;;;14.75;;
74957;SDS011;63741;42.624;26.276;2022-11-18T15:16:38;72.65;;;19.10;;
74957;SDS011;63741;42.624;26.276;2022-11-18T15:19:08;77.85;;;19.08;;
74957;SDS011;63741;42.624;26.276;2022-11-18T15:21:40;76.07;;;27.33;;
74957;SDS011;63741;42.624;26.276;2022-11-18T15:24:08;87.13;;;36.35;;
74957;SDS011;63741;42.624;26.276;2022-11-18T15:26:36;74.93;;;31.33;;
74957;SDS011;63741;42.624;26.276;2022-11-18T15:29:05;55.92;;;22.38;;
74957;SDS011;63741;42.624;26.276;2022-11-18T15:31:32;37.75;;;17.60;;
74957;SDS011;63741;42.624;26.276;2022-11-18T15:33:59;34.53;;;18.55;;
74957;SDS011;63741;42.624;26.276;2022-11-18T15:36:32;36.05;;;19.88;;
74957;SDS011;63741;42.624;26.276;2022-11-18T15:38:59;33.33;;;20.55;;
74957;SDS011;63741;42.624;26.276;2022-11-18T15:41:26;38.70;;;23.17;;
74957;SDS011;63741;42.624;26.276;2022-11-18T15:43:56;48.67;;;29.63;;
74957;SDS011;63741;42.624;26.276;2022-11-18T15:46:25;67.55;;;38.05;;
74957;SDS011;63741;42.624;26.276;2022-11-18T15:48:53;59.42;;;30.60;;
74957;SDS011;63741;42.624;26.276;2022-11-18T15:51:21;61.47;;;34.15;;
74957;SDS011;63741;42.624;26.276;2022-11-18T15:53:49;75.38;;;37.10;;
74957;SDS011;63741;42.624;26.276;2022-11-18T16:01:25;57.90;;;36.00;;
74957;SDS011;63741;42.624;26.276;2022-11-18T16:03:58;60.70;;;33.35;;
74957;SDS011;63741;42.624;26.276;2022-11-18T16:06:25;69.10;;;39.22;;
74957;SDS011;63741;42.624;26.276;2022-11-18T16:08:52;76.97;;;44.83;;
74957;SDS011;63741;42.624;26.276;2022-11-18T16:11:26;89.88;;;50.33;;
74957;SDS011;63741;42.624;26.276;2022-11-18T16:14:13;83.82;;;46.28;;
74957;SDS011;63741;42.624;26.276;2022-11-18T16:16:43;71.13;;;39.88;;
74957;SDS011;63741;42.624;26.276;2022-11-18T16:19:12;92.47;;;50.03;;
74957;SDS011;63741;42.624;26.276;2022-11-18T16:21:42;78.13;;;45.58;;
74957;SDS011;63741;42.624;26.276;2022-11-18T16:24:12;97.75;;;51.88;;
74957;SDS011;63741;42.624;26.276;2022-11-18T16:26:51;68.20;;;37.00;;
74957;SDS011;63741;42.624;26.276;2022-11-18T16:29:18;80.40;;;43.10;;
74957;SDS011;63741;42.624;26.276;2022-11-18T16:31:47;88.00;;;45.42;;
74957;SDS011;63741;42.624;26.276;2022-11-18T16:36:50;102.10;;;59.00;;
74957;SDS011;63741;42.624;26.276;2022-11-18T16:39:20;76.95;;;49.30;;
74957;SDS011;63741;42.624;26.276;2022-11-18T16:41:52;87.07;;;51.80;;
74957;SDS011;63741;42.624;26.276;2022-11-18T16:44:20;86.60;;;49.28;;
74957;SDS011;63741;42.624;26.276;2022-11-18T16:46:51;73.28;;;42.20;;
74957;SDS011;63741;42.624;26.276;2022-11-18T16:49:24;59.22;;;37.35;;
74957;SDS011;63741;42.624;26.276;2022-11-18T16:51:53;75.13;;;44.15;;
74957;SDS011;63741;42.624;26.276;2022-11-18T16:54:22;73.53;;;44.70;;
74957;SDS011;63741;42.624;26.276;2022-11-18T16:56:49;68.35;;;40.53;;
74957;SDS011;63741;42.624;26.276;2022-11-18T16:59:21;113.32;;;57.28;;
74957;SDS011;63741;42.624;26.276;2022-11-18T17:01:50;161.63;;;79.28;;